sensor_id;sensor_type;location;lat;lon;timestamp;pressure;altitude;pressure_sealevel;temperature;humidity
11621;BME280;5866;49.094;11.900;2023-04-06T00:01:34;96467.06;;;0.20;87.30
11621;BME280;5866;49.094;11.900;2023-04-06T00:04:02;96479.66;;;0.14;87.47
11621;BME280;5866;49.094;11.900;2023-04-06T00:06:30;96472.47;;;0.03;87.80
11621;BME280;5866;49.094;11.900;2023-04-06T00:08:58;96476.56;;;-0.07;88.78
11621;BME280;5866;49.094;11.900;2023-04-06T00:11:26;96462.94;;;-0.12;91.27
11621;BME280;5866;49.094;11.900;2023-04-06T00:13:54;96470.78;;;-0.12;90.66
11621;BME280;5866;49.094;11.900;2023-04-06T00:16:23;96465.00;;;-0.17;91.16
11621;BME280;5866;49.094;11.900;2023-04-06T00:18:52;96470.22;;;-0.17;91.31
11621;BME280;5866;49.094;11.900;2023-04-06T00:21:20;96465.81;;;-0.17;91.05
11621;BME280;5866;49.094;11.900;2023-04-06T00:23:47;96475.44;;;-0.17;91.38
11621;BME280;5866;49.094;11.900;2023-04-06T00:26:15;96479.72;;;-0.16;91.60
11621;BME280;5866;49.094;11.900;2023-04-06T00:28:42;96475.59;;;-0.20;92.66
11621;BME280;5866;49.094;11.900;2023-04-06T00:31:10;96461.66;;;-0.19;92.41
11621;BME280;5866;49.094;11.900;2023-04-06T00:33:39;96466.88;;;-0.19;91.96
11621;BME280;5866;49.094;11.900;2023-04-06T00:36:07;96470.19;;;-0.31;92.40
11621;BME280;5866;49.094;11.900;2023-04-06T00:38:34;96475.22;;;-0.28;93.33
11621;BME280;5866;49.094;11.900;2023-04-06T00:41:03;96460.34;;;-0.26;93.59
11621;BME280;5866;49.094;11.900;2023-04-06T00:43:31;96460.91;;;-0.21;92.95
11621;BME280;5866;49.094;11.900;2023-04-06T00:45:59;96463.97;;;-0.15;93.27
11621;BME280;5866;49.094;11.900;2023-04-06T00:48:26;96468.16;;;-0.12;93.20
11621;BME280;5866;49.094;11.900;2023-04-06T00:50:58;96467.78;;;-0.06;92.69
11621;BME280;5866;49.094;11.900;2023-04-06T00:53:27;96469.13;;;0.01;92.97
11621;BME280;5866;49.094;11.900;2023-04-06T00:55:55;96470.22;;;0.11;92.59
11621;BME280;5866;49.094;11.900;2023-04-06T00:58:23;96457.38;;;0.22;91.73
11621;BME280;5866;49.094;11.900;2023-04-06T01:00:51;96468.06;;;0.32;92.00
11621;BME280;5866;49.094;11.900;2023-04-06T01:03:18;96458.09;;;0.38;90.45
11621;BME280;5866;49.094;11.900;2023-04-06T01:05:46;96455.13;;;0.30;89.83
11621;BME280;5866;49.094;11.900;2023-04-06T01:08:15;96452.72;;;0.13;88.97
11621;BME280;5866;49.094;11.900;2023-04-06T01:10:42;96460.00;;;0.08;89.51
11621;BME280;5866;49.094;11.900;2023-04-06T01:13:10;96458.69;;;0.01;89.41
11621;BME280;5866;49.094;11.900;2023-04-06T01:15:37;96450.88;;;0.01;89.53
11621;BME280;5866;49.094;11.900;2023-04-06T01:18:05;96450.88;;;0.01;89.95
11621;BME280;5866;49.094;11.900;2023-04-06T01:20:35;96451.59;;;0.03;89.19
11621;BME280;5866;49.094;11.900;2023-04-06T01:23:04;96448.91;;;0.05;88.58
11621;BME280;5866;49.094;11.900;2023-04-06T01:25:31;96445.53;;;0.03;89.67
11621;BME280;5866;49.094;11.900;2023-04-06T01:27:59;96448.63;;;-0.05;90.44
11621;BME280;5866;49.094;11.900;2023-04-06T01:30:26;96445.66;;;-0.13;90.99
11621;BME280;5866;49.094;11.900;2023-04-06T01:32:54;96457.72;;;-0.26;90.48
11621;BME280;5866;49.094;11.900;2023-04-06T01:35:22;96454.66;;;-0.33;90.27
11621;BME280;5866;49.094;11.900;2023-04-06T01:37:49;96454.75;;;-0.34;91.60
11621;BME280;5866;49.094;11.900;2023-04-06T01:40:18;96443.22;;;-0.30;92.43
11621;BME280;5866;49.094;11.900;2023-04-06T01:42:47;96444.34;;;-0.20;93.09
11621;BME280;5866;49.094;11.900;2023-04-06T01:45:14;96448.16;;;-0.12;92.79
11621;BME280;5866;49.094;11.900;2023-04-06T01:47:42;96448.63;;;-0.05;92.85
11621;BME280;5866;49.094;11.900;2023-04-06T01:50:09;96451.25;;;-0.05;92.19
11621;BME280;5866;49.094;11.900;2023-04-06T01:52:37;96444.34;;;-0.06;91.88
11621;BME280;5866;49.094;11.900;2023-04-06T01:55:04;96447.13;;;0.05;92.61
11621;BME280;5866;49.094;11.900;2023-04-06T01:57:34;96443.97;;;0.14;91.67
11621;BME280;5866;49.094;11.900;2023-04-06T02:00:02;96435.50;;;0.25;91.04
11621;BME280;5866;49.094;11.900;2023-04-06T02:02:29;96442.00;;;0.32;90.84
11621;BME280;5866;49.094;11.900;2023-04-06T02:04:57;96440.06;;;0.35;90.00
11621;BME280;5866;49.094;11.900;2023-04-06T02:07:24;96447.09;;;0.47;89.17
11621;BME280;5866;49.094;11.900;2023-04-06T02:09:54;96434.81;;;0.49;89.06
11621;BME280;5866;49.094;11.900;2023-04-06T02:12:22;96436.66;;;0.47;88.77
11621;BME280;5866;49.094;11.900;2023-04-06T02:14:51;96434.06;;;0.47;87.72
11621;BME280;5866;49.094;11.900;2023-04-06T02:17:19;96442.81;;;0.46;86.79
11621;BME280;5866;49.094;11.900;2023-04-06T02:19:46;96436.31;;;0.25;88.08
11621;BME280;5866;49.094;11.900;2023-04-06T02:22:14;96438.38;;;0.20;88.72
11621;BME280;5866;49.094;11.900;2023-04-06T02:24:42;96436.91;;;0.16;88.85
11621;BME280;5866;49.094;11.900;2023-04-06T02:27:09;96437.25;;;0.24;88.21
11621;BME280;5866;49.094;11.900;2023-04-06T02:29:37;96433.53;;;0.14;87.55
11621;BME280;5866;49.094;11.900;2023-04-06T02:32:05;96427.41;;;0.29;88.41
11621;BME280;5866;49.094;11.900;2023-04-06T02:34:33;96442.59;;;0.23;88.22
11621;BME280;5866;49.094;11.900;2023-04-06T02:37:01;96434.28;;;0.30;87.45
11621;BME280;5866;49.094;11.900;2023-04-06T02:39:28;96432.16;;;0.23;87.87
11621;BME280;5866;49.094;11.900;2023-04-06T02:41:56;96429.78;;;0.32;89.14
11621;BME280;5866;49.094;11.900;2023-04-06T02:44:24;96428.00;;;0.47;87.97
11621;BME280;5866;49.094;11.900;2023-04-06T02:46:51;96430.34;;;0.37;86.77
11621;BME280;5866;49.094;11.900;2023-04-06T02:49:20;96429.19;;;0.15;88.96
11621;BME280;5866;49.094;11.900;2023-04-06T02:51:48;96428.78;;;-0.08;90.51
11621;BME280;5866;49.094;11.900;2023-04-06T02:54:15;96424.97;;;-0.02;91.14
11621;BME280;5866;49.094;11.900;2023-04-06T02:56:43;96426.47;;;0.02;91.29
11621;BME280;5866;49.094;11.900;2023-04-06T02:59:10;96426.84;;;0.10;91.10
11621;BME280;5866;49.094;11.900;2023-04-06T03:01:38;96415.09;;;0.17;89.85
11621;BME280;5866;49.094;11.900;2023-04-06T03:04:06;96421.25;;;0.16;88.68
11621;BME280;5866;49.094;11.900;2023-04-06T03:06:34;96421.44;;;0.13;88.63
11621;BME280;5866;49.094;11.900;2023-04-06T03:09:02;96423.50;;;0.08;88.84
11621;BME280;5866;49.094;11.900;2023-04-06T03:11:30;96425.75;;;0.00;89.45
11621;BME280;5866;49.094;11.900;2023-04-06T03:13:57;96435.03;;;-0.10;89.99
11621;BME280;5866;49.094;11.900;2023-04-06T03:16:25;96430.00;;;-0.13;90.40
11621;BME280;5866;49.094;11.900;2023-04-06T03:18:53;96428.53;;;-0.17;90.69
11621;BME280;5866;49.094;11.900;2023-04-06T03:21:20;96432.41;;;-0.24;90.78
11621;BME280;5866;49.094;11.900;2023-04-06T03:23:49;96430.06;;;-0.29;90.83
11621;BME280;5866;49.094;11.900;2023-04-06T03:26:17;96436.31;;;-0.31;91.01
11621;BME280;5866;49.094;11.900;2023-04-06T03:28:45;96428.41;;;-0.30;90.04
11621;BME280;5866;49.094;11.900;2023-04-06T03:31:12;96431.66;;;-0.26;90.04
11621;BME280;5866;49.094;11.900;2023-04-06T03:33:40;96434.09;;;-0.23;89.66
11621;BME280;5866;49.094;11.900;2023-04-06T03:36:07;96436.03;;;-0.27;90.19
11621;BME280;5866;49.094;11.900;2023-04-06T03:38:35;96434.44;;;-0.29;90.56
11621;BME280;5866;49.094;11.900;2023-04-06T03:41:06;96440.22;;;-0.38;91.49
11621;BME280;5866;49.094;11.900;2023-04-06T03:43:34;96437.13;;;-0.59;90.73
11621;BME280;5866;49.094;11.900;2023-04-06T03:46:01;96445.19;;;-0.63;91.95
11621;BME280;5866;49.094;11.900;2023-04-06T03:48:29;96450.03;;;-0.57;92.61
11621;BME280;5866;49.094;11.900;2023-04-06T03:50:56;96450.22;;;-0.60;93.44
11621;BME280;5866;49.094;11.900;2023-04-06T03:53:24;96452.44;;;-0.54;93.39
11621;BME280;5866;49.094;11.900;2023-04-06T03:55:51;96457.66;;;-0.54;94.35
11621;BME280;5866;49.094;11.900;2023-04-06T03:58:20;96452.66;;;-0.57;93.88
11621;BME280;5866;49.094;11.900;2023-04-06T04:00:48;96449.69;;;-0.51;94.84
11621;BME280;5866;49.094;11.900;2023-04-06T04:03:15;96461.44;;;-0.44;94.05
11621;BME280;5866;49.094;11.900;2023-04-06T04:05:43;96469.69;;;-0.52;93.86
11621;BME280;5866;49.094;11.900;2023-04-06T04:08:11;96459.00;;;-0.47;93.32
11621;BME280;5866;49.094;11.900;2023-04-06T04:10:38;96464.47;;;-0.52;93.13
11621;BME280;5866;49.094;11.900;2023-04-06T04:13:06;96464.66;;;-0.55;93.18
11621;BME280;5866;49.094;11.900;2023-04-06T04:15:35;96469.38;;;-0.61;93.11
11621;BME280;5866;49.094;11.900;2023-04-06T04:18:02;96465.69;;;-0.57;93.17
11621;BME280;5866;49.094;11.900;2023-04-06T04:20:30;96471.25;;;-0.63;92.70
11621;BME280;5866;49.094;11.900;2023-04-06T04:22:57;96469.56;;;-0.64;92.58
11621;BME280;5866;49.094;11.900;2023-04-06T04:25:25;96471.59;;;-0.69;93.24
11621;BME280;5866;49.094;11.900;2023-04-06T04:27:52;96470.91;;;-0.73;93.97
11621;BME280;5866;49.094;11.900;2023-04-06T04:30:21;96468.06;;;-0.68;92.56
11621;BME280;5866;49.094;11.900;2023-04-06T04:32:50;96469.41;;;-0.77;92.30
11621;BME280;5866;49.094;11.900;2023-04-06T04:35:17;96477.47;;;-0.82;91.81
11621;BME280;5866;49.094;11.900;2023-04-06T04:37:45;96474.22;;;-0.85;92.97
11621;BME280;5866;49.094;11.900;2023-04-06T04:40:12;96472.28;;;-0.82;94.87
11621;BME280;5866;49.094;11.900;2023-04-06T04:42:40;96469.50;;;-0.78;95.56
11621;BME280;5866;49.094;11.900;2023-04-06T04:45:08;96478.16;;;-0.78;95.47
11621;BME280;5866;49.094;11.900;2023-04-06T04:47:35;96475.97;;;-0.70;95.61
11621;BME280;5866;49.094;11.900;2023-04-06T04:50:05;96475.50;;;-0.62;93.87
11621;BME280;5866;49.094;11.900;2023-04-06T04:52:33;96473.75;;;-0.62;93.52
11621;BME280;5866;49.094;11.900;2023-04-06T04:55:01;96475.34;;;-0.59;93.45
11621;BME280;5866;49.094;11.900;2023-04-06T04:57:28;96467.34;;;-0.56;93.85
11621;BME280;5866;49.094;11.900;2023-04-06T04:59:56;96467.91;;;-0.51;94.12
11621;BME280;5866;49.094;11.900;2023-04-06T05:02:24;96475.00;;;-0.39;94.45
11621;BME280;5866;49.094;11.900;2023-04-06T05:04:52;96470.94;;;-0.29;93.21
11621;BME280;5866;49.094;11.900;2023-04-06T05:07:21;96468.72;;;-0.21;93.27
11621;BME280;5866;49.094;11.900;2023-04-06T05:09:48;96469.28;;;-0.16;92.76
11621;BME280;5866;49.094;11.900;2023-04-06T05:12:16;96471.72;;;-0.13;92.34
11621;BME280;5866;49.094;11.900;2023-04-06T05:14:44;96471.16;;;-0.04;91.66
11621;BME280;5866;49.094;11.900;2023-04-06T05:17:11;96479.16;;;0.07;90.94
11621;BME280;5866;49.094;11.900;2023-04-06T05:19:39;96470.22;;;0.25;91.19
11621;BME280;5866;49.094;11.900;2023-04-06T05:22:06;96472.44;;;0.59;93.44
11621;BME280;5866;49.094;11.900;2023-04-06T05:24:35;96474.59;;;1.20;97.04
11621;BME280;5866;49.094;11.900;2023-04-06T05:27:03;96471.94;;;2.11;98.88
11621;BME280;5866;49.094;11.900;2023-04-06T05:29:31;96473.28;;;3.14;88.16
11621;BME280;5866;49.094;11.900;2023-04-06T05:31:59;96473.78;;;4.24;89.30
11621;BME280;5866;49.094;11.900;2023-04-06T05:34:26;96475.81;;;5.40;82.75
11621;BME280;5866;49.094;11.900;2023-04-06T05:36:54;96466.00;;;6.57;83.16
11621;BME280;5866;49.094;11.900;2023-04-06T05:39:21;96466.16;;;7.73;77.66
11621;BME280;5866;49.094;11.900;2023-04-06T05:41:50;96450.97;;;8.78;65.55
11621;BME280;5866;49.094;11.900;2023-04-06T05:44:18;96454.63;;;9.67;63.43
11621;BME280;5866;49.094;11.900;2023-04-06T05:46:45;96452.25;;;10.34;57.19
11621;BME280;5866;49.094;11.900;2023-04-06T05:49:13;96454.22;;;10.84;55.56
11621;BME280;5866;49.094;11.900;2023-04-06T05:51:40;96450.16;;;11.47;49.60
11621;BME280;5866;49.094;11.900;2023-04-06T05:54:08;96449.25;;;12.05;49.84
11621;BME280;5866;49.094;11.900;2023-04-06T05:56:36;96450.34;;;12.83;48.47
11621;BME280;5866;49.094;11.900;2023-04-06T05:59:05;96452.59;;;13.57;43.29
11621;BME280;5866;49.094;11.900;2023-04-06T06:01:33;96449.63;;;14.27;42.38
11621;BME280;5866;49.094;11.900;2023-04-06T06:04:01;96452.72;;;15.05;40.68
11621;BME280;5866;49.094;11.900;2023-04-06T06:06:28;96454.66;;;15.55;40.00
11621;BME280;5866;49.094;11.900;2023-04-06T06:08:57;96452.59;;;15.72;39.53
11621;BME280;5866;49.094;11.900;2023-04-06T06:11:27;96449.56;;;16.38;39.04
11621;BME280;5866;49.094;11.900;2023-04-06T06:13:54;96452.94;;;16.96;38.77
11621;BME280;5866;49.094;11.900;2023-04-06T06:16:23;96444.28;;;16.45;34.54
11621;BME280;5866;49.094;11.900;2023-04-06T06:18:51;96449.19;;;15.99;35.93
11621;BME280;5866;49.094;11.900;2023-04-06T06:21:18;96458.03;;;15.78;34.46
11621;BME280;5866;49.094;11.900;2023-04-06T06:23:46;96452.34;;;15.52;34.93
11621;BME280;5866;49.094;11.900;2023-04-06T06:26:14;96460.72;;;15.64;34.92
11621;BME280;5866;49.094;11.900;2023-04-06T06:28:42;96455.56;;;15.98;35.03
11621;BME280;5866;49.094;11.900;2023-04-06T06:31:09;96463.75;;;15.61;34.53
11621;BME280;5866;49.094;11.900;2023-04-06T06:33:38;96464.16;;;15.14;34.97
11621;BME280;5866;49.094;11.900;2023-04-06T06:36:06;96464.81;;;14.64;35.32
11621;BME280;5866;49.094;11.900;2023-04-06T06:38:34;96461.91;;;13.22;37.25
11621;BME280;5866;49.094;11.900;2023-04-06T06:41:01;96467.66;;;12.78;38.95
11621;BME280;5866;49.094;11.900;2023-04-06T06:43:29;96473.19;;;12.61;38.47
11621;BME280;5866;49.094;11.900;2023-04-06T06:45:56;96475.47;;;12.80;38.78
11621;BME280;5866;49.094;11.900;2023-04-06T06:48:25;96471.38;;;13.24;38.59
11621;BME280;5866;49.094;11.900;2023-04-06T06:50:54;96471.28;;;13.02;38.04
11621;BME280;5866;49.094;11.900;2023-04-06T06:53:22;96471.09;;;13.03;39.32
11621;BME280;5866;49.094;11.900;2023-04-06T06:55:50;96467.81;;;12.93;38.36
11621;BME280;5866;49.094;11.900;2023-04-06T06:58:18;96471.41;;;12.29;39.07
11621;BME280;5866;49.094;11.900;2023-04-06T07:00:46;96482.06;;;11.63;39.85
11621;BME280;5866;49.094;11.900;2023-04-06T07:03:13;96486.81;;;11.44;40.13
11621;BME280;5866;49.094;11.900;2023-04-06T07:05:45;96478.50;;;12.05;39.52
11621;BME280;5866;49.094;11.900;2023-04-06T07:08:16;96489.13;;;11.39;40.79
11621;BME280;5866;49.094;11.900;2023-04-06T07:10:44;96493.78;;;12.03;39.72
11621;BME280;5866;49.094;11.900;2023-04-06T07:13:12;96483.19;;;12.43;38.54
11621;BME280;5866;49.094;11.900;2023-04-06T07:15:44;96481.09;;;13.01;37.42
11621;BME280;5866;49.094;11.900;2023-04-06T07:18:11;96479.13;;;12.87;37.27
11621;BME280;5866;49.094;11.900;2023-04-06T07:20:39;96472.19;;;12.70;38.18
11621;BME280;5866;49.094;11.900;2023-04-06T07:23:07;96479.84;;;12.41;39.36
11621;BME280;5866;49.094;11.900;2023-04-06T07:25:36;96477.84;;;12.67;38.18
11621;BME280;5866;49.094;11.900;2023-04-06T07:28:04;96478.31;;;13.72;37.32
11621;BME280;5866;49.094;11.900;2023-04-06T07:30:32;96483.53;;;13.96;36.56
11621;BME280;5866;49.094;11.900;2023-04-06T07:33:02;96481.50;;;14.66;35.36
11621;BME280;5866;49.094;11.900;2023-04-06T07:35:30;96481.28;;;15.05;35.15
11621;BME280;5866;49.094;11.900;2023-04-06T07:37:57;96478.66;;;16.20;33.27
11621;BME280;5866;49.094;11.900;2023-04-06T07:40:25;96492.50;;;16.09;32.45
11621;BME280;5866;49.094;11.900;2023-04-06T07:42:54;96485.06;;;16.05;32.79
11621;BME280;5866;49.094;11.900;2023-04-06T07:45:23;96484.25;;;16.04;32.99
11621;BME280;5866;49.094;11.900;2023-04-06T07:47:51;96478.31;;;16.30;32.43
11621;BME280;5866;49.094;11.900;2023-04-06T07:50:18;96470.66;;;16.90;32.32
11621;BME280;5866;49.094;11.900;2023-04-06T07:52:46;96472.22;;;17.12;31.38
11621;BME280;5866;49.094;11.900;2023-04-06T07:55:14;96481.50;;;17.44;31.31
11621;BME280;5866;49.094;11.900;2023-04-06T07:57:41;96469.09;;;17.77;30.37
11621;BME280;5866;49.094;11.900;2023-04-06T08:00:12;96481.19;;;17.60;30.05
11621;BME280;5866;49.094;11.900;2023-04-06T08:02:40;96466.41;;;17.77;30.63
11621;BME280;5866;49.094;11.900;2023-04-06T08:05:08;96466.56;;;18.23;30.03
11621;BME280;5866;49.094;11.900;2023-04-06T08:07:36;96482.34;;;17.85;30.04
11621;BME280;5866;49.094;11.900;2023-04-06T08:10:04;96473.06;;;18.68;28.85
11621;BME280;5866;49.094;11.900;2023-04-06T08:12:32;96470.66;;;19.56;28.59
11621;BME280;5866;49.094;11.900;2023-04-06T08:14:59;96470.72;;;19.94;28.34
11621;BME280;5866;49.094;11.900;2023-04-06T08:17:31;96459.28;;;20.99;26.77
11621;BME280;5866;49.094;11.900;2023-04-06T08:20:00;96465.22;;;20.83;27.03
11621;BME280;5866;49.094;11.900;2023-04-06T08:22:29;96464.06;;;20.97;26.39
11621;BME280;5866;49.094;11.900;2023-04-06T08:24:57;96470.84;;;20.56;26.63
11621;BME280;5866;49.094;11.900;2023-04-06T08:27:24;96471.56;;;20.39;27.14
11621;BME280;5866;49.094;11.900;2023-04-06T08:29:52;96469.91;;;20.94;25.72
11621;BME280;5866;49.094;11.900;2023-04-06T08:32:20;96474.13;;;21.57;25.63
11621;BME280;5866;49.094;11.900;2023-04-06T08:34:48;96471.41;;;21.14;25.58
11621;BME280;5866;49.094;11.900;2023-04-06T08:37:16;96476.41;;;21.54;25.50
11621;BME280;5866;49.094;11.900;2023-04-06T08:39:44;96470.22;;;21.53;25.64
11621;BME280;5866;49.094;11.900;2023-04-06T08:42:16;96466.38;;;21.79;25.04
11621;BME280;5866;49.094;11.900;2023-04-06T08:44:46;96467.94;;;22.04;24.47
11621;BME280;5866;49.094;11.900;2023-04-06T08:47:15;96458.56;;;20.85;25.54
11621;BME280;5866;49.094;11.900;2023-04-06T08:49:44;96464.16;;;20.28;26.98
11621;BME280;5866;49.094;11.900;2023-04-06T08:52:15;96468.50;;;19.01;27.10
11621;BME280;5866;49.094;11.900;2023-04-06T08:54:44;96474.72;;;17.14;29.30
11621;BME280;5866;49.094;11.900;2023-04-06T08:57:12;96474.72;;;17.48;29.62
11621;BME280;5866;49.094;11.900;2023-04-06T08:59:40;96469.91;;;17.71;28.92
11621;BME280;5866;49.094;11.900;2023-04-06T09:02:12;96465.56;;;17.70;28.10
11621;BME280;5866;49.094;11.900;2023-04-06T09:04:44;96473.53;;;17.23;29.35
11621;BME280;5866;49.094;11.900;2023-04-06T09:07:15;96468.53;;;17.13;29.39
11621;BME280;5866;49.094;11.900;2023-04-06T09:09:43;96468.09;;;17.10;29.46
11621;BME280;5866;49.094;11.900;2023-04-06T09:12:22;96466.34;;;17.23;29.15
11621;BME280;5866;49.094;11.900;2023-04-06T09:14:50;96468.09;;;17.44;30.18
11621;BME280;5866;49.094;11.900;2023-04-06T09:17:21;96465.31;;;17.59;29.28
11621;BME280;5866;49.094;11.900;2023-04-06T09:19:50;96467.88;;;17.11;29.23
11621;BME280;5866;49.094;11.900;2023-04-06T09:22:19;96464.06;;;16.93;29.44
11621;BME280;5866;49.094;11.900;2023-04-06T09:24:50;96465.88;;;17.20;28.84
11621;BME280;5866;49.094;11.900;2023-04-06T09:27:18;96463.38;;;18.00;28.20
11621;BME280;5866;49.094;11.900;2023-04-06T09:30:03;96460.28;;;17.96;27.50
11621;BME280;5866;49.094;11.900;2023-04-06T09:32:31;96458.13;;;18.46;28.32
11621;BME280;5866;49.094;11.900;2023-04-06T09:35:06;96457.06;;;19.19;26.70
11621;BME280;5866;49.094;11.900;2023-04-06T09:37:35;96468.09;;;17.91;27.69
11621;BME280;5866;49.094;11.900;2023-04-06T09:40:03;96463.13;;;18.49;27.45
11621;BME280;5866;49.094;11.900;2023-04-06T09:42:31;96452.75;;;19.37;25.85
11621;BME280;5866;49.094;11.900;2023-04-06T09:44:59;96457.34;;;18.97;25.43
11621;BME280;5866;49.094;11.900;2023-04-06T09:47:26;96451.13;;;19.03;26.46
11621;BME280;5866;49.094;11.900;2023-04-06T09:49:56;96455.56;;;19.55;25.99
11621;BME280;5866;49.094;11.900;2023-04-06T09:52:26;96450.28;;;19.16;25.85
11621;BME280;5866;49.094;11.900;2023-04-06T09:55:02;96453.69;;;20.07;24.81
11621;BME280;5866;49.094;11.900;2023-04-06T09:57:32;96444.66;;;19.88;24.18
11621;BME280;5866;49.094;11.900;2023-04-06T10:00:04;96442.34;;;18.10;25.52
11621;BME280;5866;49.094;11.900;2023-04-06T10:02:41;96443.41;;;18.28;26.34
11621;BME280;5866;49.094;11.900;2023-04-06T10:05:17;96458.56;;;18.69;25.40
11621;BME280;5866;49.094;11.900;2023-04-06T10:07:47;96448.66;;;18.89;25.50
11621;BME280;5866;49.094;11.900;2023-04-06T10:10:27;96439.94;;;18.93;25.76
11621;BME280;5866;49.094;11.900;2023-04-06T10:12:56;96440.31;;;19.30;25.17
11621;BME280;5866;49.094;11.900;2023-04-06T10:15:23;96427.50;;;19.19;24.82
11621;BME280;5866;49.094;11.900;2023-04-06T10:17:51;96430.81;;;18.22;26.01
11621;BME280;5866;49.094;11.900;2023-04-06T10:20:24;96423.22;;;17.59;26.15
11621;BME280;5866;49.094;11.900;2023-04-06T10:22:57;96431.66;;;17.56;26.14
11621;BME280;5866;49.094;11.900;2023-04-06T10:25:28;96427.34;;;17.21;27.61
11621;BME280;5866;49.094;11.900;2023-04-06T10:28:00;96433.94;;;13.57;32.07
11621;BME280;5866;49.094;11.900;2023-04-06T10:30:28;96432.91;;;10.68;36.38
11621;BME280;5866;49.094;11.900;2023-04-06T10:32:55;96431.56;;;11.55;36.08
11621;BME280;5866;49.094;11.900;2023-04-06T10:35:23;96423.53;;;13.70;33.25
11621;BME280;5866;49.094;11.900;2023-04-06T10:37:53;96422.69;;;15.83;30.08
11621;BME280;5866;49.094;11.900;2023-04-06T10:40:24;96412.03;;;17.15;28.36
11621;BME280;5866;49.094;11.900;2023-04-06T10:42:54;96413.38;;;17.79;28.71
11621;BME280;5866;49.094;11.900;2023-04-06T10:45:24;96409.38;;;17.15;28.60
11621;BME280;5866;49.094;11.900;2023-04-06T10:47:53;96403.56;;;16.49;29.93
11621;BME280;5866;49.094;11.900;2023-04-06T10:50:21;96398.78;;;17.47;27.80
11621;BME280;5866;49.094;11.900;2023-04-06T10:52:58;96399.28;;;17.64;27.59
11621;BME280;5866;49.094;11.900;2023-04-06T10:55:26;96400.84;;;18.12;27.61
11621;BME280;5866;49.094;11.900;2023-04-06T10:57:56;96393.72;;;17.72;27.27
11621;BME280;5866;49.094;11.900;2023-04-06T11:00:23;96413.88;;;15.68;28.64
11621;BME280;5866;49.094;11.900;2023-04-06T11:03:04;96407.84;;;15.30;31.95
11621;BME280;5866;49.094;11.900;2023-04-06T11:05:32;96391.22;;;17.17;28.36
11621;BME280;5866;49.094;11.900;2023-04-06T11:08:00;96395.91;;;19.01;26.92
11621;BME280;5866;49.094;11.900;2023-04-06T11:10:27;96394.25;;;17.48;26.70
11621;BME280;5866;49.094;11.900;2023-04-06T11:12:57;96379.63;;;18.70;27.43
11621;BME280;5866;49.094;11.900;2023-04-06T11:15:25;96384.03;;;17.71;27.40
11621;BME280;5866;49.094;11.900;2023-04-06T11:17:52;96381.03;;;17.40;28.42
11621;BME280;5866;49.094;11.900;2023-04-06T11:20:20;96378.13;;;18.02;27.88
11621;BME280;5866;49.094;11.900;2023-04-06T11:22:49;96373.78;;;18.20;26.97
11621;BME280;5866;49.094;11.900;2023-04-06T11:25:16;96375.03;;;18.11;27.07
11621;BME280;5866;49.094;11.900;2023-04-06T11:27:45;96378.03;;;17.63;26.15
11621;BME280;5866;49.094;11.900;2023-04-06T11:30:15;96377.78;;;18.64;26.26
11621;BME280;5866;49.094;11.900;2023-04-06T11:32:43;96383.31;;;18.95;24.90
11621;BME280;5866;49.094;11.900;2023-04-06T11:35:12;96382.31;;;18.44;25.63
11621;BME280;5866;49.094;11.900;2023-04-06T11:37:46;96378.94;;;16.39;27.61
11621;BME280;5866;49.094;11.900;2023-04-06T11:40:14;96363.91;;;16.94;26.91
11621;BME280;5866;49.094;11.900;2023-04-06T11:42:41;96369.00;;;16.89;27.02
11621;BME280;5866;49.094;11.900;2023-04-06T11:45:16;96369.41;;;15.67;27.81
11621;BME280;5866;49.094;11.900;2023-04-06T11:47:43;96369.06;;;15.20;28.46
11621;BME280;5866;49.094;11.900;2023-04-06T11:50:12;96361.78;;;16.27;28.58
11621;BME280;5866;49.094;11.900;2023-04-06T11:52:41;96351.19;;;17.56;26.26
11621;BME280;5866;49.094;11.900;2023-04-06T11:55:11;96343.44;;;17.27;27.19
11621;BME280;5866;49.094;11.900;2023-04-06T11:57:40;96348.91;;;17.06;26.74
11621;BME280;5866;49.094;11.900;2023-04-06T12:00:09;96347.97;;;18.39;27.69
11621;BME280;5866;49.094;11.900;2023-04-06T12:02:39;96346.38;;;19.41;25.98
11621;BME280;5866;49.094;11.900;2023-04-06T12:05:07;96343.72;;;19.15;25.33
11621;BME280;5866;49.094;11.900;2023-04-06T12:07:35;96328.88;;;19.57;25.69
11621;BME280;5866;49.094;11.900;2023-04-06T12:10:03;96331.41;;;19.90;24.92
11621;BME280;5866;49.094;11.900;2023-04-06T12:12:31;96329.91;;;20.49;24.53
11621;BME280;5866;49.094;11.900;2023-04-06T12:14:59;96326.28;;;20.80;22.59
11621;BME280;5866;49.094;11.900;2023-04-06T12:17:27;96324.78;;;20.17;23.30
11621;BME280;5866;49.094;11.900;2023-04-06T12:19:56;96335.66;;;19.15;25.66
11621;BME280;5866;49.094;11.900;2023-04-06T12:22:31;96327.88;;;18.94;26.10
11621;BME280;5866;49.094;11.900;2023-04-06T12:24:58;96328.50;;;19.53;24.25
11621;BME280;5866;49.094;11.900;2023-04-06T12:27:26;96321.16;;;20.54;25.13
11621;BME280;5866;49.094;11.900;2023-04-06T12:29:53;96314.72;;;20.30;24.03
11621;BME280;5866;49.094;11.900;2023-04-06T12:32:21;96316.22;;;20.51;23.99
11621;BME280;5866;49.094;11.900;2023-04-06T12:34:51;96304.78;;;20.31;22.69
11621;BME280;5866;49.094;11.900;2023-04-06T12:37:20;96313.53;;;21.12;22.70
11621;BME280;5866;49.094;11.900;2023-04-06T12:39:48;96301.53;;;22.27;22.23
11621;BME280;5866;49.094;11.900;2023-04-06T12:42:15;96310.88;;;20.87;22.20
11621;BME280;5866;49.094;11.900;2023-04-06T12:44:43;96307.28;;;21.11;22.25
11621;BME280;5866;49.094;11.900;2023-04-06T12:47:11;96304.03;;;20.48;23.51
11621;BME280;5866;49.094;11.900;2023-04-06T12:49:39;96300.91;;;20.88;22.80
11621;BME280;5866;49.094;11.900;2023-04-06T12:52:06;96297.66;;;21.04;22.49
11621;BME280;5866;49.094;11.900;2023-04-06T12:54:35;96301.81;;;21.18;22.32
11621;BME280;5866;49.094;11.900;2023-04-06T12:57:02;96292.25;;;21.81;21.28
11621;BME280;5866;49.094;11.900;2023-04-06T12:59:30;96285.97;;;21.87;23.75
11621;BME280;5866;49.094;11.900;2023-04-06T13:02:03;96289.78;;;20.41;24.33
11621;BME280;5866;49.094;11.900;2023-04-06T13:04:31;96285.06;;;20.06;24.13
11621;BME280;5866;49.094;11.900;2023-04-06T13:06:58;96295.91;;;19.99;24.43
11621;BME280;5866;49.094;11.900;2023-04-06T13:09:26;96291.75;;;19.34;24.42